createdAt,value
2023-09-06T00:00:50.446Z,101992.06
2023-09-06T00:03:18.320Z,101991.75
2023-09-06T00:05:47.852Z,101987.34
2023-09-06T00:08:17.576Z,101994.25
2023-09-06T00:10:44.824Z,101984.22
2023-09-06T00:13:15.358Z,101988.28
2023-09-06T00:15:44.701Z,101994.41
2023-09-06T00:18:11.518Z,101987.97
2023-09-06T00:20:39.513Z,101990.50
2023-09-06T00:23:10.711Z,101982.50
2023-09-06T00:25:38.627Z,101981.69
2023-09-06T00:28:06.888Z,101972.91
2023-09-06T00:30:34.100Z,101977.75
2023-09-06T00:33:04.067Z,101981.06
2023-09-06T00:35:30.752Z,101982.31
2023-09-06T00:37:57.333Z,101980.75
2023-09-06T00:40:27.453Z,101980.91
2023-09-06T00:43:02.779Z,101984.50
2023-09-06T00:45:45.390Z,101985.75
2023-09-06T00:48:31.188Z,101979.78
2023-09-06T00:50:58.556Z,101990.28
2023-09-06T00:53:27.574Z,101977.44
2023-09-06T00:55:54.353Z,101980.72
2023-09-06T00:58:24.787Z,101973.50
2023-09-06T01:00:51.672Z,101971.16
2023-09-06T01:03:19.240Z,101961.91
2023-09-06T01:06:18.453Z,101971.28
2023-09-06T01:08:56.334Z,101975.38
2023-09-06T01:11:26.977Z,101980.22
2023-09-06T01:14:01.165Z,101984.31
2023-09-06T01:16:40.610Z,101973.47
2023-09-06T01:19:13.331Z,101970.31
2023-09-06T01:21:41.869Z,101965.94
2023-09-06T01:24:10.623Z,101969.25
2023-09-06T01:26:37.934Z,101973.31
2023-09-06T01:29:05.235Z,101975.81
2023-09-06T01:31:35.058Z,101969.38
2023-09-06T01:34:06.400Z,101972.66
2023-09-06T01:36:33.267Z,101974.69
2023-09-06T01:38:59.916Z,101972.34
2023-09-06T01:41:26.775Z,101976.44
2023-09-06T01:43:55.782Z,101972.03
2023-09-06T01:46:24.531Z,101975.31
2023-09-06T01:48:53.686Z,101973.72
2023-09-06T01:51:23.840Z,101969.81
2023-09-06T01:53:50.588Z,101969.81
2023-09-06T01:56:17.227Z,101967.44
2023-09-06T01:58:43.950Z,101975.16
2023-09-06T02:01:11.165Z,101982.81
2023-09-06T02:03:38.355Z,101979.66
2023-09-06T02:06:05.895Z,101981.69
2023-09-06T02:08:36.721Z,101991.41
2023-09-06T02:11:05.929Z,101982.63
2023-09-06T02:13:34.750Z,101988.72
2023-09-06T02:16:02.408Z,101981.50
2023-09-06T02:18:29.484Z,101984.81
2023-09-06T02:20:56.960Z,101987.63
2023-09-06T02:23:26.031Z,101985.25
2023-09-06T02:25:52.738Z,101984.16
2023-09-06T02:28:19.447Z,101983.38
2023-09-06T02:30:51.012Z,101977.41
2023-09-06T02:33:17.737Z,101973.78
2023-09-06T02:35:47.039Z,101978.31
2023-09-06T02:38:14.728Z,101968.28
2023-09-06T02:40:44.141Z,101976.75
2023-09-06T02:43:15.623Z,101975.63
2023-09-06T02:45:51.415Z,101976.09
2023-09-06T02:48:19.913Z,101978.94
2023-09-06T02:50:46.725Z,101975.78
2023-09-06T02:53:22.968Z,101979.06
2023-09-06T02:55:53.778Z,101983.91
2023-09-06T02:58:25.758Z,101981.56
2023-09-06T03:01:00.365Z,101990.47
2023-09-06T03:03:32.430Z,101987.31
2023-09-06T03:06:05.293Z,101988.13
2023-09-06T03:08:34.540Z,101988.59
2023-09-06T03:11:03.550Z,101995.47
2023-09-06T03:13:30.370Z,101994.69
2023-09-06T03:16:00.840Z,101993.91
2023-09-06T03:18:30.866Z,101992.78
2023-09-06T03:20:57.863Z,101989.19
2023-09-06T03:23:25.766Z,101994.06
2023-09-06T03:25:55.943Z,101991.66
2023-09-06T03:28:23.411Z,101994.16
2023-09-06T03:30:50.470Z,102001.88
2023-09-06T03:33:19.717Z,102005.13
2023-09-06T03:35:46.892Z,102003.56
2023-09-06T03:38:24.787Z,102008.41
2023-09-06T03:40:53.855Z,101996.00
2023-09-06T03:43:31.982Z,102001.66
2023-09-06T03:46:00.403Z,102002.91
2023-09-06T03:48:29.767Z,102009.78
2023-09-06T03:51:04.076Z,102009.47
2023-09-06T03:53:30.798Z,101995.03
2023-09-06T03:56:01.977Z,102014.78
2023-09-06T03:58:35.530Z,102006.78
2023-09-06T04:01:02.463Z,102008.03
2023-09-06T04:03:29.216Z,102006.44
2023-09-06T04:05:56.332Z,102005.66
2023-09-06T04:08:30.805Z,102006.91
2023-09-06T04:10:57.791Z,102004.56
2023-09-06T04:13:27.554Z,102002.97
2023-09-06T04:15:54.234Z,102004.25
2023-09-06T04:18:20.949Z,102012.69
2023-09-06T04:20:50.207Z,102021.59
2023-09-06T04:23:20.237Z,102024.88
2023-09-06T04:25:49.461Z,102008.44
2023-09-06T04:28:17.330Z,102017.34
2023-09-06T04:30:48.795Z,102021.41
2023-09-06T04:33:15.952Z,102017.03
2023-09-06T04:35:45.527Z,102021.06
2023-09-06T04:38:13.779Z,102014.69
2023-09-06T04:40:46.425Z,102015.91
2023-09-06T04:43:14.903Z,102014.34
2023-09-06T04:45:46.085Z,102024.03
2023-09-06T04:48:24.346Z,102022.44
2023-09-06T04:50:57.714Z,102027.28
2023-09-06T04:53:24.432Z,102022.88
2023-09-06T04:55:53.367Z,102028.97
2023-09-06T04:58:20.564Z,102029.44
2023-09-06T05:00:51.161Z,102032.72
2023-09-06T05:03:21.278Z,102029.13
2023-09-06T05:05:48.722Z,102034.75
2023-09-06T05:08:16.052Z,102040.84
2023-09-06T05:10:50.616Z,102044.09
2023-09-06T05:13:19.810Z,102038.47
2023-09-06T05:15:48.670Z,102043.34
2023-09-06T05:18:16.081Z,102036.13
2023-09-06T05:20:42.942Z,102030.16
2023-09-06T05:23:14.164Z,102031.41
2023-09-06T05:25:47.595Z,102035.44
2023-09-06T05:28:16.225Z,102029.50
2023-09-06T05:30:50.423Z,102043.56
2023-09-06T05:33:19.146Z,102048.41
2023-09-06T05:35:48.228Z,102046.06
2023-09-06T05:38:17.866Z,102040.44
2023-09-06T05:40:50.277Z,102050.91
2023-09-06T05:43:21.636Z,102057.78
2023-09-06T05:45:48.268Z,102053.38
2023-09-06T05:48:14.934Z,102056.19
2023-09-06T05:50:43.904Z,102061.06
2023-09-06T05:53:10.619Z,102060.28
2023-09-06T05:55:39.625Z,102059.47
2023-09-06T05:58:06.458Z,102056.66
2023-09-06T06:00:35.358Z,102056.66
2023-09-06T06:03:03.547Z,102060.75
2023-09-06T06:05:30.242Z,102069.19
2023-09-06T06:07:59.143Z,102060.75
2023-09-06T06:10:25.986Z,102062.31
2023-09-06T06:12:52.588Z,102055.88
2023-09-06T06:15:19.255Z,102065.13
2023-09-06T06:17:45.921Z,102060.28
2023-09-06T06:20:12.894Z,102063.09
2023-09-06T06:22:41.128Z,102056.66
2023-09-06T06:25:09.547Z,102061.50
2023-09-06T06:27:42.263Z,102062.31
2023-09-06T06:30:09.601Z,102063.09
2023-09-06T06:32:36.989Z,102061.84
2023-09-06T06:35:07.411Z,102059.81
2023-09-06T06:37:39.254Z,102063.44
2023-09-06T06:40:07.358Z,102064.22
2023-09-06T06:42:37.132Z,102066.56
2023-09-06T06:45:05.878Z,102064.56
2023-09-06T06:47:33.182Z,102064.88
2023-09-06T06:50:04.493Z,102059.13
2023-09-06T06:52:38.008Z,102063.22
2023-09-06T06:55:05.336Z,102060.22
2023-09-06T06:57:32.124Z,102064.63
2023-09-06T06:59:58.904Z,102066.09
2023-09-06T07:02:28.012Z,102065.56
2023-09-06T07:04:58.122Z,102059.72
2023-09-06T07:07:25.777Z,102068.25
2023-09-06T07:09:52.424Z,102070.72
2023-09-06T07:12:19.059Z,102065.88
2023-09-06T07:14:45.816Z,102069.16
2023-09-06T07:17:12.469Z,102071.97
2023-09-06T07:19:43.064Z,102073.09
2023-09-06T07:22:09.916Z,102076.38
2023-09-06T07:24:38.734Z,102082.31
2023-09-06T07:27:05.443Z,102077.94
2023-09-06T07:29:32.105Z,102067.81
2023-09-06T07:31:59.327Z,102074.25
2023-09-06T07:34:28.486Z,102083.47
2023-09-06T07:36:55.162Z,102093.38
2023-09-06T07:39:22.901Z,102091.69
2023-09-06T07:41:54.712Z,102086.41
2023-09-06T07:44:23.803Z,102091.91
2023-09-06T07:46:50.694Z,102101.03
2023-09-06T07:49:18.326Z,102096.97
2023-09-06T07:51:47.487Z,102094.72
2023-09-06T07:54:14.142Z,102102.22
2023-09-06T07:56:40.965Z,102102.44
2023-09-06T07:59:11.266Z,102100.41
2023-09-06T08:01:37.953Z,102099.19
2023-09-06T08:04:04.969Z,102102.66
2023-09-06T08:06:31.798Z,102109.28
2023-09-06T08:09:01.052Z,102115.25
2023-09-06T08:11:27.789Z,102114.81
2023-09-06T08:13:56.887Z,102107.16
2023-09-06T08:16:23.663Z,102117.50
2023-09-06T08:18:50.532Z,102117.38
2023-09-06T08:21:20.532Z,102116.94
2023-09-06T08:23:50.340Z,102122.31
2023-09-06T08:26:17.101Z,102128.16
2023-09-06T08:28:43.822Z,102135.88
2023-09-06T08:31:10.641Z,102132.13
2023-09-06T08:33:37.863Z,102132.44
2023-09-06T08:36:04.773Z,102139.97
2023-09-06T08:38:34.076Z,102129.34
2023-09-06T08:41:03.804Z,102130.34
2023-09-06T08:43:36.529Z,102127.44
2023-09-06T08:46:12.935Z,102122.88
2023-09-06T08:48:41.237Z,102117.91
2023-09-06T08:51:08.657Z,102124.19
2023-09-06T08:53:35.865Z,102123.97
2023-09-06T08:56:07.903Z,102116.94
2023-09-06T08:58:35.083Z,102116.66
2023-09-06T09:01:05.153Z,102120.31
2023-09-06T09:03:34.942Z,102124.13
2023-09-06T09:06:10.598Z,102119.94
2023-09-06T09:08:37.626Z,102124.56
2023-09-06T09:11:14.302Z,102114.72
2023-09-06T09:13:44.029Z,102121.78
2023-09-06T09:16:15.071Z,102124.00
2023-09-06T09:18:44.006Z,102125.13
2023-09-06T09:21:13.285Z,102120.88
2023-09-06T09:23:48.502Z,102120.88
2023-09-06T09:26:20.793Z,102128.78
2023-09-06T09:28:51.107Z,102123.44
2023-09-06T09:31:17.996Z,102116.84
2023-09-06T09:33:46.295Z,102122.72
2023-09-06T09:36:16.594Z,102122.88
2023-09-06T09:38:48.275Z,102123.19
2023-09-06T09:41:15.458Z,102123.38
2023-09-06T09:43:44.586Z,102127.78
2023-09-06T09:46:11.489Z,102128.72
2023-09-06T09:48:43.013Z,102119.66
2023-09-06T09:51:17.390Z,102121.84
2023-09-06T09:53:47.466Z,102120.97
2023-09-06T09:56:17.858Z,102123.94
2023-09-06T09:58:45.727Z,102133.06
2023-09-06T10:01:12.838Z,102129.31
2023-09-06T10:03:40.523Z,102125.88
2023-09-06T10:06:11.877Z,102120.84
2023-09-06T10:08:41.844Z,102122.44
2023-09-06T10:11:08.978Z,102115.03
2023-09-06T10:13:39.287Z,102121.81
2023-09-06T10:16:08.573Z,102114.44
2023-09-06T10:18:36.800Z,102099.84
2023-09-06T10:21:05.518Z,102107.69
2023-09-06T10:23:32.887Z,102106.91
2023-09-06T10:26:01.183Z,102109.28
2023-09-06T10:28:33.623Z,102112.09
2023-09-06T10:31:09.692Z,102109.72
2023-09-06T10:33:43.833Z,102109.28
2023-09-06T10:36:14.750Z,102107.44
2023-09-06T10:38:53.892Z,102101.44
2023-09-06T10:41:21.878Z,102114.47
2023-09-06T10:44:02.575Z,102111.97
2023-09-06T10:46:33.685Z,102116.50
2023-09-06T10:49:13.017Z,102115.56
2023-09-06T10:52:03.154Z,102116.81
2023-09-06T10:54:36.818Z,102115.22
2023-09-06T10:57:06.970Z,102114.56
2023-09-06T10:59:38.635Z,102106.41
2023-09-06T11:02:22.799Z,102107.50
2023-09-06T11:05:03.499Z,102113.28
2023-09-06T11:10:14.314Z,102106.03
2023-09-06T11:12:41.002Z,102112.16
2023-09-06T11:15:09.037Z,102103.94
2023-09-06T11:17:38.884Z,102096.25
2023-09-06T11:20:13.717Z,102107.38
2023-09-06T11:22:50.057Z,102104.78
2023-09-06T11:25:26.436Z,102098.03
2023-09-06T11:28:01.095Z,102104.88
2023-09-06T11:30:33.665Z,102104.66
2023-09-06T11:33:00.535Z,102098.41
2023-09-06T11:35:34.250Z,102093.03
2023-09-06T11:38:01.727Z,102100.22
2023-09-06T11:40:30.437Z,102090.72
2023-09-06T11:43:00.735Z,102095.25
2023-09-06T11:45:28.212Z,102094.59
2023-09-06T11:47:56.585Z,102092.03
2023-09-06T11:50:25.422Z,102094.84
2023-09-06T11:52:58.613Z,102089.00
2023-09-06T11:55:31.386Z,102090.88
2023-09-06T11:57:59.178Z,102096.25
2023-09-06T12:00:44.070Z,102089.19
2023-09-06T12:03:14.726Z,102089.41
2023-09-06T12:05:49.768Z,102086.16
2023-09-06T12:08:21.026Z,102084.88
2023-09-06T12:10:55.746Z,102075.09
2023-09-06T12:13:32.037Z,102075.47
2023-09-06T12:16:01.327Z,102074.63
2023-09-06T12:18:31.278Z,102076.06
2023-09-06T12:20:59.586Z,102071.03
2023-09-06T12:23:37.330Z,102080.97
2023-09-06T12:26:05.228Z,102078.19
2023-09-06T12:28:34.817Z,102074.72
2023-09-06T12:31:16.540Z,102074.03
2023-09-06T12:33:47.154Z,102067.59
2023-09-06T12:36:15.249Z,102066.63
2023-09-06T12:38:41.917Z,102065.50
2023-09-06T12:41:10.886Z,102071.53
2023-09-06T12:43:38.411Z,102068.78
2023-09-06T12:46:13.190Z,102075.78
2023-09-06T12:48:44.131Z,102084.09
2023-09-06T12:51:11.525Z,102078.50
2023-09-06T12:53:38.334Z,102081.75
2023-09-06T12:56:05.126Z,102091.88
2023-09-06T12:58:33.315Z,102091.47
2023-09-06T13:01:04.630Z,102088.66
2023-09-06T13:03:31.620Z,102086.63
2023-09-06T13:06:02.694Z,102091.66
2023-09-06T13:08:35.163Z,102082.44
2023-09-06T13:11:01.941Z,102087.66
2023-09-06T13:13:28.735Z,102086.19
2023-09-06T13:15:57.700Z,102086.25
2023-09-06T13:18:26.919Z,102087.59
2023-09-06T13:20:58.408Z,102085.56
2023-09-06T13:23:25.109Z,102076.75
2023-09-06T13:25:54.001Z,102079.59
2023-09-06T13:28:20.643Z,102076.53
2023-09-06T13:30:47.360Z,102075.78
2023-09-06T13:33:14.071Z,102079.19
2023-09-06T13:35:40.811Z,102071.16
2023-09-06T13:38:09.975Z,102068.03
2023-09-06T13:40:36.808Z,102067.25
2023-09-06T13:43:03.772Z,102069.06
2023-09-06T13:45:30.807Z,102059.00
2023-09-06T13:47:57.757Z,102048.91
2023-09-06T13:50:24.576Z,102059.84
2023-09-06T13:52:52.613Z,102057.75
2023-09-06T13:55:19.330Z,102059.34
2023-09-06T13:57:48.250Z,102050.03
2023-09-06T14:00:15.252Z,102051.59
2023-09-06T14:02:44.232Z,102059.91
2023-09-06T14:05:14.287Z,102056.03
2023-09-06T14:07:41.108Z,102053.41
2023-09-06T14:10:10.257Z,102055.22
2023-09-06T14:12:40.510Z,102057.31
2023-09-06T14:15:07.742Z,102054.44
2023-09-06T14:17:34.398Z,102060.66
2023-09-06T14:20:05.781Z,102063.50
2023-09-06T14:22:34.941Z,102057.78
2023-09-06T14:25:01.631Z,102053.34
2023-09-06T14:27:28.290Z,102065.81
2023-09-06T14:29:58.753Z,102065.56
2023-09-06T14:32:27.988Z,102058.00
2023-09-06T14:34:54.895Z,102057.53
2023-09-06T14:37:21.622Z,102054.94
2023-09-06T14:39:48.757Z,102050.50
2023-09-06T14:42:15.451Z,102052.81
2023-09-06T14:44:42.162Z,102047.38
2023-09-06T14:47:11.486Z,102050.25
2023-09-06T14:49:39.942Z,102042.50
2023-09-06T14:52:09.586Z,102040.16
2023-09-06T14:54:36.236Z,102045.94
2023-09-06T14:57:05.648Z,102042.31
2023-09-06T14:59:32.744Z,102041.00
2023-09-06T15:01:59.528Z,102041.50
2023-09-06T15:04:26.371Z,102040.97
2023-09-06T15:07:00.436Z,102039.16
2023-09-06T15:09:29.936Z,102044.38
2023-09-06T15:12:01.788Z,102037.34
2023-09-06T15:14:29.688Z,102040.16
2023-09-06T15:16:56.348Z,102037.06
2023-09-06T15:19:22.973Z,102036.28
2023-09-06T15:21:56.196Z,102036.03
2023-09-06T15:24:22.975Z,102033.16
2023-09-06T15:26:49.792Z,102028.25
2023-09-06T15:29:18.526Z,102036.03
2023-09-06T15:31:45.351Z,102034.19
2023-09-06T15:34:14.262Z,102033.41
2023-09-06T15:36:45.847Z,102034.69
2023-09-06T15:39:12.713Z,102039.88
2023-09-06T15:41:40.056Z,102034.69
2023-09-06T15:44:06.827Z,102034.16
2023-09-06T15:46:33.620Z,102026.84
2023-09-06T15:49:00.504Z,102020.81
2023-09-06T15:51:27.327Z,102021.06
2023-09-06T15:53:54.061Z,102023.88
2023-09-06T15:56:24.123Z,102031.09
2023-09-06T15:58:53.130Z,102034.44
2023-09-06T16:01:19.804Z,102032.06
2023-09-06T16:03:46.642Z,102034.56
2023-09-06T16:06:15.803Z,102036.41
2023-09-06T16:08:42.516Z,102036.84
2023-09-06T16:11:09.289Z,102037.63
2023-09-06T16:13:35.943Z,102042.53
2023-09-06T16:16:04.776Z,102037.34
2023-09-06T16:18:33.819Z,102039.16
2023-09-06T16:21:02.884Z,102039.19
2023-09-06T16:23:29.520Z,102041.81
2023-09-06T16:25:56.229Z,102035.34
2023-09-06T16:28:26.681Z,102042.16
2023-09-06T16:30:55.604Z,102042.19
2023-09-06T16:33:22.351Z,102046.34
2023-09-06T16:35:51.578Z,102034.19
2023-09-06T16:38:18.258Z,102035.22
2023-09-06T16:40:44.929Z,102029.25
2023-09-06T16:43:11.772Z,102023.03
2023-09-06T16:45:41.646Z,102022.28
2023-09-06T16:48:08.603Z,102027.97
2023-09-06T16:50:35.730Z,102025.09
2023-09-06T16:53:07.535Z,102020.16
2023-09-06T16:55:34.401Z,102018.03
2023-09-06T16:58:01.132Z,102022.34
2023-09-06T17:00:29.830Z,102011.19
2023-09-06T17:02:56.471Z,102016.63
2023-09-06T17:05:25.801Z,102022.81
2023-09-06T17:07:52.521Z,102019.88
2023-09-06T17:10:22.183Z,102021.41
2023-09-06T17:12:50.867Z,102023.22
2023-09-06T17:15:26.085Z,102019.31
2023-09-06T17:17:55.823Z,102034.56
2023-09-06T17:20:27.474Z,102026.22
2023-09-06T17:22:58.926Z,102021.53
2023-09-06T17:25:26.771Z,102022.56
2023-09-06T17:27:58.437Z,102021.66
2023-09-06T17:30:31.517Z,102019.78
2023-09-06T17:33:02.460Z,102017.88
2023-09-06T17:35:32.192Z,102018.84
2023-09-06T17:38:06.463Z,102020.88
2023-09-06T17:40:36.615Z,102020.25
2023-09-06T17:43:03.794Z,102021.94
2023-09-06T17:45:30.744Z,102018.25
2023-09-06T17:48:06.043Z,102016.16
2023-09-06T17:50:37.896Z,102014.50
2023-09-06T17:53:11.093Z,102017.59
2023-09-06T17:55:41.413Z,102013.91
2023-09-06T17:58:08.862Z,102019.53
2023-09-06T18:00:41.373Z,102021.03
2023-09-06T18:03:08.647Z,102017.63
2023-09-06T18:05:36.190Z,102020.19
2023-09-06T18:08:06.550Z,102013.63
2023-09-06T18:10:33.894Z,102016.41
2023-09-06T18:13:02.022Z,102019.97
2023-09-06T18:15:29.032Z,102018.56
2023-09-06T18:17:55.895Z,102025.28
2023-09-06T18:20:25.260Z,102011.75
2023-09-06T18:22:55.080Z,102006.00
2023-09-06T18:25:24.762Z,102007.19
2023-09-06T18:27:54.440Z,102004.28
2023-09-06T18:30:25.770Z,102007.84
2023-09-06T18:32:55.022Z,102019.13
2023-09-06T18:35:24.053Z,102024.72
2023-09-06T18:37:50.858Z,102022.59
2023-09-06T18:40:17.638Z,102019.19
2023-09-06T18:42:45.221Z,102024.28
2023-09-06T18:45:14.582Z,102015.97
2023-09-06T18:47:52.477Z,102033.94
2023-09-06T18:50:25.740Z,102027.69
2023-09-06T18:52:57.459Z,102035.34
2023-09-06T18:55:26.425Z,102052.59
2023-09-06T18:58:05.612Z,102048.88
2023-09-06T19:00:35.512Z,102047.19
2023-09-06T19:03:06.895Z,102045.06
2023-09-06T19:05:37.872Z,102051.41
2023-09-06T19:08:05.034Z,102045.16
2023-09-06T19:10:33.200Z,102036.84
2023-09-06T19:12:59.828Z,102034.97
2023-09-06T19:15:26.584Z,102032.03
2023-09-06T19:17:57.753Z,102045.34
2023-09-06T19:20:24.982Z,102051.38
2023-09-06T19:22:54.476Z,102052.84
2023-09-06T19:25:25.291Z,102050.19
2023-09-06T19:27:52.795Z,102052.75
2023-09-06T19:30:20.117Z,102049.41
2023-09-06T19:32:46.875Z,102051.75
2023-09-06T19:35:14.887Z,102051.94
2023-09-06T19:37:41.793Z,102046.47
2023-09-06T19:40:12.326Z,102044.09
2023-09-06T19:42:39.299Z,102036.28
2023-09-06T19:45:06.458Z,102034.09
2023-09-06T19:47:35.721Z,102028.63
2023-09-06T19:50:05.732Z,102027.88
2023-09-06T19:52:32.460Z,102028.03
2023-09-06T19:55:03.079Z,102026.19
2023-09-06T19:57:32.793Z,102014.75
2023-09-06T20:00:02.243Z,102020.41
2023-09-06T20:02:29.025Z,102011.91
2023-09-06T20:04:59.001Z,102001.34
2023-09-06T20:07:26.073Z,101997.72
2023-09-06T20:09:53.381Z,101993.50
2023-09-06T20:12:23.070Z,101984.91
2023-09-06T20:14:49.713Z,101996.72
2023-09-06T20:17:16.453Z,101994.84
2023-09-06T20:19:43.189Z,102003.38
2023-09-06T20:22:09.817Z,101997.09
2023-09-06T20:24:36.471Z,102006.72
2023-09-06T20:27:05.681Z,102006.59
2023-09-06T20:29:33.911Z,102010.09
2023-09-06T20:32:01.172Z,102009.50
2023-09-06T20:34:28.468Z,102014.56
2023-09-06T20:36:57.701Z,102008.28
2023-09-06T20:39:24.349Z,102010.50
2023-09-06T20:41:51.050Z,102023.31
2023-09-06T20:44:17.689Z,102025.22
2023-09-06T20:46:45.630Z,102023.34
2023-09-06T20:49:17.181Z,102021.50
2023-09-06T20:51:46.728Z,102017.88
2023-09-06T20:54:15.814Z,102017.25
2023-09-06T20:56:42.642Z,102019.47
2023-09-06T20:59:09.292Z,102021.41
2023-09-06T21:01:36.033Z,102020.16
2023-09-06T21:04:02.999Z,102021.09
2023-09-06T21:06:29.897Z,102011.53
2023-09-06T21:09:00.451Z,102014.53
2023-09-06T21:11:27.310Z,102022.69
2023-09-06T21:13:53.958Z,102028.38
2023-09-06T21:16:20.614Z,102026.50
2023-09-06T21:18:47.385Z,102021.78
2023-09-06T21:21:16.343Z,102027.13
2023-09-06T21:23:45.199Z,102032.50
2023-09-06T21:26:11.897Z,102026.84
2023-09-06T21:28:38.597Z,102029.19
2023-09-06T21:31:05.325Z,102034.56
2023-09-06T21:33:33.269Z,102031.72
2023-09-06T21:36:02.404Z,102041.47
2023-09-06T21:38:29.529Z,102036.28
2023-09-06T21:40:59.207Z,102037.56
2023-09-06T21:43:26.105Z,102046.69
2023-09-06T21:45:53.306Z,102052.03
2023-09-06T21:48:25.266Z,102044.50
2023-09-06T21:51:05.906Z,102038.22
2023-09-06T21:53:34.933Z,102040.75
2023-09-06T21:56:01.757Z,102044.84
2023-09-06T21:58:28.590Z,102045.78
2023-09-06T22:00:57.377Z,102052.69
2023-09-06T22:03:24.494Z,102046.91
2023-09-06T22:05:53.405Z,102052.41
2023-09-06T22:08:20.029Z,102048.00
2023-09-06T22:10:46.671Z,102042.53
2023-09-06T22:13:13.391Z,102039.38
2023-09-06T22:15:40.049Z,102041.91
2023-09-06T22:18:07.823Z,102042.03
2023-09-06T22:20:42.612Z,102057.09
2023-09-06T22:23:09.603Z,102054.13
2023-09-06T22:25:36.391Z,102059.00
2023-09-06T22:28:05.857Z,102059.16
2023-09-06T22:30:40.016Z,102055.53
2023-09-06T22:33:07.227Z,102048.97
2023-09-06T22:35:36.386Z,102055.84
2023-09-06T22:38:03.153Z,102055.06
2023-09-06T22:40:32.337Z,102060.09
2023-09-06T22:42:59.022Z,102063.88
2023-09-06T22:45:25.665Z,102072.53
2023-09-06T22:47:52.317Z,102064.66
2023-09-06T22:50:19.061Z,102067.97
2023-09-06T22:52:45.782Z,102063.56
2023-09-06T22:55:16.163Z,102065.13
2023-09-06T22:57:42.790Z,102054.75
2023-09-06T23:00:10.796Z,102066.06
2023-09-06T23:02:40.590Z,102057.25
2023-09-06T23:05:10.709Z,102058.06
2023-09-06T23:07:40.353Z,102050.84
2023-09-06T23:10:10.450Z,102043.94
2023-09-06T23:12:42.012Z,102049.25
2023-09-06T23:15:09.732Z,102045.66
2023-09-06T23:17:41.541Z,102046.44
2023-09-06T23:20:20.733Z,102046.44
2023-09-06T23:22:49.116Z,102039.69
2023-09-06T23:25:17.778Z,102043.94
2023-09-06T23:27:48.394Z,102042.97
2023-09-06T23:30:19.075Z,102053.78
2023-09-06T23:32:48.617Z,102045.31
2023-09-06T23:35:17.137Z,102049.25
2023-09-06T23:37:47.658Z,102048.03
2023-09-06T23:40:24.984Z,102044.72
2023-09-06T23:42:55.217Z,102040.63
2023-09-06T23:45:23.983Z,102039.38
2023-09-06T23:47:56.170Z,102028.84
2023-09-06T23:50:25.291Z,102023.19
2023-09-06T23:52:54.090Z,102028.84
2023-09-06T23:55:22.534Z,102026.03
2023-09-06T23:57:49.767Z,102021.63
